Terminal Aerodrome Forecast
Issued by NWS

Home | Current Version | Previous Version | Text Only | Print | Product List | Glossary On
Versions: 1 2 3 4 5 6 7 8 9 10 11 12 13 14 15
000
FTUS45 KTFX 200522
TAFHLN

TAF
KHLN 200520Z 2006/2106 VRB06KT P6SM BKN150
     FM200800 VRB03KT P6SM BKN100
     FM201500 35006KT P6SM OVC120
     FM201900 26006KT P6SM BKN090=

USA.gov is the U.S. government's official web portal to all federal, state and local government web resources and services.